createdAt,value
2019-05-22T00:00:17.523Z,10.17
2019-05-22T00:02:47.839Z,10.73
2019-05-22T00:05:37.147Z,9.97
2019-05-22T00:08:08.592Z,10.00
2019-05-22T00:10:39.241Z,10.93
2019-05-22T00:13:09.685Z,10.70
2019-05-22T00:15:40.388Z,10.23
2019-05-22T00:18:10.350Z,10.63
2019-05-22T00:20:39.542Z,11.23
2019-05-22T00:23:09.939Z,10.50
2019-05-22T00:25:38.806Z,11.83
2019-05-22T00:28:08.262Z,12.20
2019-05-22T00:30:41.733Z,12.13
2019-05-22T00:33:11.477Z,11.77
2019-05-22T00:35:42.244Z,12.03
2019-05-22T00:38:11.671Z,11.93
2019-05-22T00:40:45.306Z,11.27
2019-05-22T00:43:17.171Z,12.07
2019-05-22T00:45:49.014Z,10.87
2019-05-22T00:48:20.750Z,11.37
2019-05-22T00:51:03.999Z,13.08
2019-05-22T00:53:51.626Z,11.77
2019-05-22T00:56:38.612Z,12.30
2019-05-22T00:59:13.621Z,12.63
2019-05-22T01:01:46.133Z,13.20
2019-05-22T01:04:16.420Z,11.87
2019-05-22T01:06:46.738Z,13.30
2019-05-22T01:09:17.127Z,13.73
2019-05-22T01:11:47.366Z,12.37
2019-05-22T01:14:18.301Z,12.50
2019-05-22T01:16:48.606Z,13.27
2019-05-22T01:19:19.081Z,14.83
2019-05-22T01:21:48.959Z,14.17
2019-05-22T01:24:17.617Z,14.80
2019-05-22T01:26:49.589Z,14.67
2019-05-22T01:29:19.893Z,13.00
2019-05-22T01:31:52.836Z,13.70
2019-05-22T01:34:23.903Z,13.53
2019-05-22T01:36:54.142Z,13.07
2019-05-22T01:39:26.756Z,13.47
2019-05-22T01:41:57.524Z,14.43
2019-05-22T01:44:28.631Z,13.77
2019-05-22T01:47:00.429Z,15.90
2019-05-22T01:49:31.015Z,14.23
2019-05-22T01:52:00.155Z,13.77
2019-05-22T01:54:30.875Z,13.13
2019-05-22T01:57:04.629Z,14.10
2019-05-22T01:59:34.666Z,14.73
2019-05-22T02:02:04.517Z,13.37
2019-05-22T02:04:34.274Z,14.80
2019-05-22T02:07:03.899Z,14.40
2019-05-22T02:09:38.124Z,14.17
2019-05-22T02:12:11.578Z,15.10
2019-05-22T02:14:44.598Z,15.13
2019-05-22T02:17:15.803Z,14.97
2019-05-22T02:19:44.657Z,16.00
2019-05-22T02:22:15.289Z,15.20
2019-05-22T02:24:44.307Z,18.30
2019-05-22T02:27:15.049Z,17.60
2019-05-22T02:29:44.399Z,16.60
2019-05-22T02:32:14.116Z,17.00
2019-05-22T02:34:44.005Z,18.00
2019-05-22T02:37:12.956Z,17.43
2019-05-22T02:39:43.024Z,18.53
2019-05-22T02:42:19.175Z,18.47
2019-05-22T02:44:48.836Z,18.20
2019-05-22T02:47:21.119Z,17.30
2019-05-22T02:49:50.260Z,17.77
2019-05-22T02:52:20.623Z,17.07
2019-05-22T02:54:50.321Z,18.10
2019-05-22T02:57:19.480Z,16.93
2019-05-22T02:59:48.592Z,17.83
2019-05-22T03:02:18.062Z,16.63
2019-05-22T03:04:53.630Z,18.23
2019-05-22T03:07:24.676Z,19.50
2019-05-22T03:09:54.060Z,17.73
2019-05-22T03:12:24.394Z,20.20
2019-05-22T03:14:52.947Z,19.57
2019-05-22T03:17:30.775Z,20.30
2019-05-22T03:20:02.062Z,20.80
2019-05-22T03:22:37.906Z,20.70
2019-05-22T03:25:13.214Z,20.57
2019-05-22T03:27:50.830Z,19.73
2019-05-22T03:30:34.685Z,18.70
2019-05-22T03:33:05.999Z,18.03
2019-05-22T03:35:38.785Z,18.63
2019-05-22T03:38:09.171Z,19.43
2019-05-22T03:40:42.273Z,20.20
2019-05-22T03:43:15.539Z,20.13
2019-05-22T03:45:44.779Z,20.87
2019-05-22T03:48:13.714Z,19.70
2019-05-22T03:50:43.164Z,19.67
2019-05-22T03:53:18.079Z,19.00
2019-05-22T03:55:48.557Z,19.07
2019-05-22T03:58:18.759Z,19.73
2019-05-22T04:00:49.849Z,19.50
2019-05-22T04:03:19.596Z,19.17
2019-05-22T04:05:48.855Z,19.30
2019-05-22T04:08:19.316Z,17.70
2019-05-22T04:10:59.905Z,22.13
2019-05-22T04:13:29.234Z,17.67
2019-05-22T04:15:59.652Z,18.50
2019-05-22T04:18:30.346Z,14.47
2019-05-22T04:21:00.291Z,14.63
2019-05-22T04:23:29.199Z,14.40
2019-05-22T04:25:59.129Z,14.70
2019-05-22T04:28:30.254Z,14.27
2019-05-22T04:31:00.236Z,13.70
2019-05-22T04:33:30.800Z,13.93
2019-05-22T04:36:01.967Z,14.03
2019-05-22T04:38:31.597Z,13.57
2019-05-22T04:41:01.470Z,13.37
2019-05-22T04:43:32.566Z,14.53
2019-05-22T04:46:02.169Z,14.27
2019-05-22T04:48:32.732Z,14.43
2019-05-22T04:51:05.564Z,13.40
2019-05-22T04:53:34.295Z,13.53
2019-05-22T04:56:03.071Z,13.87
2019-05-22T04:58:32.108Z,11.83
2019-05-22T05:01:01.300Z,11.50
2019-05-22T05:03:30.152Z,11.00
2019-05-22T05:06:00.082Z,10.50
2019-05-22T05:08:30.105Z,10.80
2019-05-22T05:11:00.641Z,10.67
2019-05-22T05:13:29.355Z,9.77
2019-05-22T05:15:58.000Z,9.60
2019-05-22T05:18:26.863Z,8.83
2019-05-22T05:20:55.614Z,7.27
2019-05-22T05:23:24.406Z,7.90
2019-05-22T05:25:53.235Z,6.80
2019-05-22T05:28:23.167Z,6.27
2019-05-22T05:30:51.995Z,6.83
2019-05-22T05:33:21.677Z,5.70
2019-05-22T05:35:51.866Z,5.17
2019-05-22T05:38:23.626Z,5.00
2019-05-22T05:40:52.545Z,4.30
2019-05-22T05:43:22.279Z,5.27
2019-05-22T05:45:51.593Z,4.60
2019-05-22T05:48:23.936Z,4.43
2019-05-22T05:51:08.426Z,4.73
2019-05-22T05:53:59.651Z,4.70
2019-05-22T05:56:31.946Z,4.40
2019-05-22T05:59:03.104Z,4.10
2019-05-22T06:01:39.344Z,4.30
2019-05-22T06:04:09.120Z,3.97
2019-05-22T06:06:44.119Z,4.27
2019-05-22T06:09:16.815Z,4.60
2019-05-22T06:11:56.560Z,5.00
2019-05-22T06:14:35.931Z,4.60
2019-05-22T06:17:39.570Z,4.70
2019-05-22T06:20:11.813Z,3.93
2019-05-22T06:22:42.696Z,4.47
2019-05-22T06:25:14.493Z,4.30
2019-05-22T06:27:46.229Z,4.07
2019-05-22T06:30:17.659Z,4.10
2019-05-22T06:33:01.585Z,4.33
2019-05-22T06:35:33.738Z,5.17
2019-05-22T06:38:29.543Z,5.23
2019-05-22T06:40:58.598Z,5.70
2019-05-22T06:43:30.267Z,4.70
2019-05-22T06:45:59.419Z,4.60
2019-05-22T06:48:28.163Z,4.30
2019-05-22T06:50:57.703Z,4.03
2019-05-22T06:53:26.509Z,4.47
2019-05-22T06:55:55.344Z,4.13
2019-05-22T06:58:23.906Z,3.80
2019-05-22T07:00:52.940Z,3.17
2019-05-22T07:03:21.919Z,3.60
2019-05-22T07:05:51.737Z,3.30
2019-05-22T07:08:20.634Z,3.50
2019-05-22T07:10:49.220Z,4.00
2019-05-22T07:13:18.315Z,4.67
2019-05-22T07:15:48.594Z,3.97
2019-05-22T07:18:19.479Z,4.27
2019-05-22T07:20:48.806Z,5.03
2019-05-22T07:23:23.639Z,5.50
2019-05-22T07:25:52.839Z,5.63
2019-05-22T07:28:23.328Z,5.97
2019-05-22T07:30:52.675Z,5.20
2019-05-22T07:33:22.958Z,4.90
2019-05-22T07:36:08.392Z,4.37
2019-05-22T07:38:22.735Z,4.33
2019-05-22T07:40:52.943Z,4.50
2019-05-22T07:43:22.529Z,4.30
2019-05-22T07:45:52.708Z,3.50
2019-05-22T07:48:23.546Z,3.73
2019-05-22T07:50:54.666Z,3.40
2019-05-22T07:53:25.222Z,3.17
2019-05-22T07:55:55.423Z,3.30
2019-05-22T07:58:28.529Z,3.50
2019-05-22T08:00:59.133Z,3.53
2019-05-22T08:03:29.088Z,3.07
2019-05-22T08:05:58.516Z,3.40
2019-05-22T08:08:29.686Z,3.23
2019-05-22T08:10:59.253Z,3.93
2019-05-22T08:13:29.118Z,3.57
2019-05-22T08:15:58.149Z,3.57
2019-05-22T08:18:28.462Z,3.87
2019-05-22T08:20:57.528Z,3.70
2019-05-22T08:23:27.701Z,4.47
2019-05-22T08:25:58.396Z,4.77
2019-05-22T08:28:28.188Z,5.10
2019-05-22T08:30:56.988Z,5.27
2019-05-22T08:33:26.123Z,4.67
2019-05-22T08:35:55.159Z,4.87
2019-05-22T08:38:29.062Z,4.33
2019-05-22T08:41:00.144Z,4.00
2019-05-22T08:43:31.249Z,3.67
2019-05-22T08:46:01.414Z,3.60
2019-05-22T08:48:32.697Z,3.67
2019-05-22T08:51:02.856Z,3.67
2019-05-22T08:53:46.244Z,4.40
2019-05-22T08:56:04.232Z,4.03
2019-05-22T08:58:34.994Z,4.07
2019-05-22T09:01:03.897Z,4.73
2019-05-22T09:03:32.730Z,4.30
2019-05-22T09:06:01.648Z,4.43
2019-05-22T09:08:30.714Z,4.60
2019-05-22T09:10:59.307Z,4.60
2019-05-22T09:13:27.969Z,4.60
2019-05-22T09:16:01.710Z,4.60
2019-05-22T09:18:28.125Z,4.50
2019-05-22T09:20:58.207Z,4.10
2019-05-22T09:23:26.778Z,4.33
2019-05-22T09:25:55.890Z,4.77
2019-05-22T09:28:24.787Z,4.50
2019-05-22T09:30:53.530Z,4.27
2019-05-22T09:33:23.167Z,3.97
2019-05-22T09:35:52.433Z,4.90
2019-05-22T09:38:21.342Z,5.20
2019-05-22T09:40:50.069Z,4.30
2019-05-22T09:43:18.996Z,3.50
2019-05-22T09:45:47.982Z,3.87
2019-05-22T09:48:17.540Z,4.10
2019-05-22T09:50:46.291Z,4.10
2019-05-22T09:53:15.824Z,3.47
2019-05-22T09:55:47.421Z,4.30
2019-05-22T09:58:15.015Z,3.90
2019-05-22T10:00:43.839Z,4.05
2019-05-22T10:03:13.061Z,3.37
2019-05-22T10:05:41.782Z,3.80
2019-05-22T10:08:10.980Z,3.63
2019-05-22T10:10:39.748Z,3.83
2019-05-22T10:13:08.571Z,3.83
2019-05-22T10:15:37.691Z,4.07
2019-05-22T10:18:06.815Z,4.97
2019-05-22T10:20:35.400Z,4.37
2019-05-22T10:23:14.911Z,4.13
2019-05-22T10:25:35.438Z,4.27
2019-05-22T10:28:07.236Z,4.33
2019-05-22T10:30:36.085Z,4.57
2019-05-22T10:33:04.985Z,3.83
2019-05-22T10:35:34.644Z,4.23
2019-05-22T10:38:03.593Z,4.67
2019-05-22T10:40:32.681Z,4.70
2019-05-22T10:43:02.098Z,4.90
2019-05-22T10:45:30.907Z,5.03
2019-05-22T10:47:59.620Z,4.77
2019-05-22T10:50:28.539Z,4.60
2019-05-22T10:52:57.483Z,4.90
2019-05-22T10:55:27.143Z,4.87
2019-05-22T10:57:55.850Z,5.40
2019-05-22T11:00:26.018Z,5.63
2019-05-22T11:02:55.190Z,5.73
2019-05-22T11:05:24.378Z,6.90
2019-05-22T11:07:53.201Z,6.37
2019-05-22T11:10:24.403Z,6.50
2019-05-22T11:12:53.859Z,5.90
2019-05-22T11:15:23.735Z,6.23
2019-05-22T11:17:53.025Z,5.40
2019-05-22T11:20:42.448Z,5.10
2019-05-22T11:23:11.637Z,5.70
2019-05-22T11:25:40.887Z,5.90
2019-05-22T11:28:09.671Z,5.87
2019-05-22T11:30:38.747Z,5.83
2019-05-22T11:33:09.045Z,6.00
2019-05-22T11:35:37.841Z,6.10
2019-05-22T11:38:06.502Z,5.63
2019-05-22T11:40:35.238Z,5.87
2019-05-22T11:43:05.271Z,6.58
2019-05-22T11:45:34.262Z,6.57
2019-05-22T11:48:03.744Z,6.03
2019-05-22T11:50:33.395Z,6.13
2019-05-22T11:53:02.205Z,5.43
2019-05-22T11:55:44.077Z,5.87
2019-05-22T11:58:02.261Z,6.27
2019-05-22T12:00:31.087Z,5.80
2019-05-22T12:03:01.445Z,6.27
2019-05-22T12:05:31.523Z,5.73
2019-05-22T12:08:00.435Z,6.67
2019-05-22T12:10:29.187Z,6.03
2019-05-22T12:12:58.118Z,6.17
2019-05-22T12:15:28.729Z,6.13
2019-05-22T12:17:58.110Z,6.47
2019-05-22T12:20:27.786Z,5.43
2019-05-22T12:22:57.090Z,5.33
2019-05-22T12:25:26.480Z,6.00
2019-05-22T12:27:55.968Z,5.40
2019-05-22T12:30:26.782Z,5.93
2019-05-22T12:32:56.328Z,5.53
2019-05-22T12:35:26.408Z,5.27
2019-05-22T12:37:55.553Z,6.00
2019-05-22T12:40:25.032Z,5.57
2019-05-22T12:42:53.855Z,5.90
2019-05-22T12:45:28.951Z,5.70
2019-05-22T12:47:59.222Z,5.50
2019-05-22T12:50:32.468Z,6.17
2019-05-22T12:53:06.314Z,5.90
2019-05-22T12:55:35.214Z,6.93
2019-05-22T12:58:05.502Z,7.00
2019-05-22T13:00:34.694Z,5.73
2019-05-22T13:03:05.024Z,6.07
2019-05-22T13:05:36.210Z,5.90
2019-05-22T13:08:06.001Z,5.37
2019-05-22T13:10:36.296Z,5.20
2019-05-22T13:13:05.302Z,5.57
2019-05-22T13:15:35.328Z,5.13
2019-05-22T13:18:05.822Z,6.10
2019-05-22T13:20:43.046Z,5.50
2019-05-22T13:23:09.353Z,6.00
2019-05-22T13:25:41.926Z,6.63
2019-05-22T13:28:12.474Z,6.30
2019-05-22T13:30:42.826Z,7.40
2019-05-22T13:33:15.286Z,7.30
2019-05-22T13:35:45.348Z,7.83
2019-05-22T13:38:14.896Z,7.23
2019-05-22T13:40:45.801Z,7.87
2019-05-22T13:43:14.868Z,8.90
2019-05-22T13:45:44.266Z,7.77
2019-05-22T13:48:13.163Z,8.63
2019-05-22T13:50:42.559Z,9.13
2019-05-22T13:53:13.312Z,9.60
2019-05-22T13:55:42.181Z,11.30
2019-05-22T13:58:11.774Z,10.53
2019-05-22T14:00:41.667Z,9.33
2019-05-22T14:03:10.979Z,11.50
2019-05-22T14:05:41.755Z,10.70
2019-05-22T14:08:10.861Z,11.40
2019-05-22T14:10:40.535Z,11.20
2019-05-22T14:13:09.649Z,11.90
2019-05-22T14:15:52.173Z,12.80
2019-05-22T14:18:09.277Z,11.90
2019-05-22T14:20:38.535Z,12.33
2019-05-22T14:23:07.227Z,14.77
2019-05-22T14:25:37.083Z,19.67
2019-05-22T14:28:07.751Z,16.33
2019-05-22T14:30:37.458Z,13.33
2019-05-22T14:33:06.550Z,14.77
2019-05-22T14:35:47.802Z,12.60
2019-05-22T14:38:09.271Z,14.13
2019-05-22T14:40:38.685Z,13.17
2019-05-22T14:43:08.227Z,13.43
2019-05-22T14:45:37.723Z,13.60
2019-05-22T14:48:06.707Z,13.30
2019-05-22T14:50:35.742Z,11.77
2019-05-22T14:53:05.007Z,14.20
2019-05-22T14:55:34.776Z,12.77
2019-05-22T14:58:05.601Z,13.93
2019-05-22T15:00:35.305Z,14.60
2019-05-22T15:03:04.480Z,14.97
2019-05-22T15:05:33.397Z,13.77
2019-05-22T15:08:02.050Z,14.50
2019-05-22T15:10:32.047Z,14.60
2019-05-22T15:13:01.387Z,14.87
2019-05-22T15:15:30.636Z,14.93
2019-05-22T15:17:59.470Z,14.30
2019-05-22T15:20:42.691Z,14.87
2019-05-22T15:23:11.849Z,13.93
2019-05-22T15:25:40.719Z,17.73
2019-05-22T15:28:09.786Z,89.90
2019-05-22T15:30:39.692Z,33.90
2019-05-22T15:33:09.673Z,18.20
2019-05-22T15:35:38.428Z,16.67
2019-05-22T15:38:10.326Z,17.83
2019-05-22T15:40:40.020Z,16.90
2019-05-22T15:43:10.251Z,17.17
2019-05-22T15:45:41.947Z,18.80
2019-05-22T15:48:17.731Z,17.73
2019-05-22T15:50:48.057Z,18.13
2019-05-22T15:53:17.421Z,17.43
2019-05-22T15:55:48.605Z,18.03
2019-05-22T15:58:18.936Z,22.97
2019-05-22T16:00:48.318Z,16.73
2019-05-22T16:03:22.670Z,20.77
2019-05-22T16:05:54.101Z,17.27
2019-05-22T16:08:23.582Z,16.20
2019-05-22T16:10:52.874Z,17.40
2019-05-22T16:13:23.082Z,15.37
2019-05-22T16:15:54.713Z,17.00
2019-05-22T16:18:28.435Z,16.50
2019-05-22T16:21:01.968Z,18.23
2019-05-22T16:23:33.195Z,19.30
2019-05-22T16:26:03.332Z,18.00
2019-05-22T16:28:36.064Z,17.73
2019-05-22T16:31:07.127Z,17.57
2019-05-22T16:33:37.221Z,18.47
2019-05-22T16:36:06.893Z,18.37
2019-05-22T16:38:37.472Z,18.33
2019-05-22T16:41:06.783Z,16.40
2019-05-22T16:43:48.717Z,17.63
2019-05-22T16:46:09.853Z,17.47
2019-05-22T16:48:39.763Z,16.43
2019-05-22T16:51:10.715Z,17.57
2019-05-22T16:53:39.941Z,18.53
2019-05-22T16:56:08.864Z,15.90
2019-05-22T16:58:37.731Z,17.27
2019-05-22T17:01:08.412Z,16.07
2019-05-22T17:03:37.326Z,16.23
2019-05-22T17:06:06.937Z,15.40
2019-05-22T17:08:36.723Z,16.93
2019-05-22T17:11:07.377Z,15.73
2019-05-22T17:13:36.875Z,17.87
2019-05-22T17:16:07.067Z,17.50
2019-05-22T17:18:46.748Z,15.70
2019-05-22T17:21:08.484Z,16.83
2019-05-22T17:23:37.259Z,16.93
2019-05-22T17:26:06.952Z,16.73
2019-05-22T17:28:36.358Z,16.47
2019-05-22T17:31:06.232Z,16.33
2019-05-22T17:33:35.498Z,15.53
2019-05-22T17:36:05.708Z,15.37
2019-05-22T17:38:35.237Z,15.37
2019-05-22T17:41:04.825Z,14.47
2019-05-22T17:43:34.171Z,14.63
2019-05-22T17:46:04.901Z,14.57
2019-05-22T17:48:36.149Z,15.63
2019-05-22T17:51:06.123Z,17.00
2019-05-22T17:53:36.937Z,14.60
2019-05-22T17:56:06.048Z,14.67
2019-05-22T17:58:35.551Z,14.40
2019-05-22T18:01:05.871Z,14.87
2019-05-22T18:03:34.883Z,16.60
2019-05-22T18:06:04.490Z,17.03
2019-05-22T18:08:33.584Z,15.10
2019-05-22T18:11:07.956Z,15.70
2019-05-22T18:13:39.723Z,14.60
2019-05-22T18:16:09.870Z,15.47
2019-05-22T18:18:39.061Z,14.57
2019-05-22T18:21:10.486Z,14.77
2019-05-22T18:23:39.565Z,14.87
2019-05-22T18:26:09.588Z,15.13
2019-05-22T18:28:38.875Z,15.53
2019-05-22T18:31:08.225Z,15.33
2019-05-22T18:33:37.625Z,15.50
2019-05-22T18:36:07.236Z,15.50
2019-05-22T18:38:36.596Z,15.37
2019-05-22T18:41:06.522Z,15.27
2019-05-22T18:43:36.392Z,16.57
2019-05-22T18:46:06.478Z,14.83
2019-05-22T18:48:36.458Z,15.03
2019-05-22T18:51:06.675Z,15.67
2019-05-22T18:53:36.508Z,15.93
2019-05-22T18:56:10.499Z,15.67
2019-05-22T18:58:39.436Z,16.47
2019-05-22T19:01:09.549Z,15.20
2019-05-22T19:03:40.183Z,14.20
2019-05-22T19:06:11.121Z,15.43
2019-05-22T19:08:41.549Z,14.33
2019-05-22T19:11:11.390Z,14.93
2019-05-22T19:13:41.275Z,14.30
2019-05-22T19:16:10.897Z,15.13
2019-05-22T19:18:41.363Z,15.30
2019-05-22T19:21:11.207Z,14.40
2019-05-22T19:23:41.065Z,16.30
2019-05-22T19:26:11.286Z,16.07
2019-05-22T19:28:43.872Z,15.53
2019-05-22T19:31:13.014Z,15.60
2019-05-22T19:33:42.755Z,15.83
2019-05-22T19:36:13.268Z,16.27
2019-05-22T19:38:42.562Z,16.43
2019-05-22T19:41:12.378Z,16.90
2019-05-22T19:43:42.176Z,17.03
2019-05-22T19:46:11.194Z,15.33
2019-05-22T19:48:41.107Z,15.97
2019-05-22T19:51:10.730Z,16.77
2019-05-22T19:53:39.868Z,16.73
2019-05-22T19:56:08.895Z,16.17
2019-05-22T19:58:37.752Z,15.60
2019-05-22T20:01:06.619Z,16.60
2019-05-22T20:03:35.332Z,16.30
2019-05-22T20:06:05.528Z,13.80
2019-05-22T20:08:36.745Z,14.90
2019-05-22T20:11:06.201Z,14.60
2019-05-22T20:13:35.331Z,18.40
2019-05-22T20:16:04.802Z,15.30
2019-05-22T20:18:33.453Z,14.97
2019-05-22T20:21:02.318Z,14.93
2019-05-22T20:23:36.057Z,14.40
2019-05-22T20:26:01.692Z,14.20
2019-05-22T20:28:31.768Z,14.70
2019-05-22T20:31:00.417Z,13.37
2019-05-22T20:33:28.996Z,15.30
2019-05-22T20:35:57.815Z,13.50
2019-05-22T20:38:26.478Z,15.10
2019-05-22T20:40:55.135Z,16.90
2019-05-22T20:43:24.195Z,14.47
2019-05-22T20:45:53.575Z,13.90
2019-05-22T20:48:30.086Z,13.90
2019-05-22T20:51:01.054Z,15.50
2019-05-22T20:53:32.976Z,14.80
2019-05-22T20:56:02.290Z,14.80
2019-05-22T20:58:32.470Z,14.27
2019-05-22T21:01:01.394Z,15.73
2019-05-22T21:03:31.736Z,14.87
2019-05-22T21:06:02.900Z,15.63
2019-05-22T21:08:32.600Z,15.17
2019-05-22T21:11:01.495Z,14.03
2019-05-22T21:13:31.716Z,13.37
2019-05-22T21:16:01.849Z,13.50
2019-05-22T21:18:32.070Z,13.77
2019-05-22T21:21:00.993Z,13.57
2019-05-22T21:23:29.822Z,13.50
2019-05-22T21:25:59.034Z,13.80
2019-05-22T21:28:28.446Z,13.63
2019-05-22T21:30:57.806Z,12.70
2019-05-22T21:33:26.777Z,13.00
2019-05-22T21:35:55.373Z,12.87
2019-05-22T21:38:24.832Z,12.93
2019-05-22T21:40:56.921Z,12.50
2019-05-22T21:43:25.955Z,12.87
2019-05-22T21:45:55.035Z,12.40
2019-05-22T21:48:24.352Z,12.50
2019-05-22T21:50:52.998Z,11.77
2019-05-22T21:53:21.830Z,12.77
2019-05-22T21:56:03.581Z,11.97
2019-05-22T21:58:21.177Z,11.80
2019-05-22T22:00:57.367Z,11.57
2019-05-22T22:03:29.986Z,12.93
2019-05-22T22:06:00.274Z,12.07
2019-05-22T22:08:29.494Z,11.33
2019-05-22T22:10:58.659Z,11.93
2019-05-22T22:13:27.778Z,11.23
2019-05-22T22:15:56.629Z,11.43
2019-05-22T22:18:26.767Z,11.23
2019-05-22T22:20:56.398Z,11.13
2019-05-22T22:23:25.829Z,11.23
2019-05-22T22:25:54.823Z,10.70
2019-05-22T22:28:25.406Z,10.73
2019-05-22T22:30:57.639Z,11.53
2019-05-22T22:33:29.117Z,10.23
2019-05-22T22:35:58.139Z,10.67
2019-05-22T22:38:27.972Z,9.47
2019-05-22T22:40:57.503Z,9.60
2019-05-22T22:43:32.474Z,9.07
2019-05-22T22:46:05.225Z,9.47
2019-05-22T22:48:39.106Z,9.57
2019-05-22T22:51:11.735Z,8.93
2019-05-22T22:53:42.344Z,9.03
2019-05-22T22:56:11.970Z,9.17
2019-05-22T22:58:41.146Z,9.90
2019-05-22T23:01:13.600Z,9.70
2019-05-22T23:03:43.403Z,8.80
2019-05-22T23:06:13.803Z,8.37
2019-05-22T23:08:42.683Z,9.23
2019-05-22T23:11:13.311Z,9.00
2019-05-22T23:13:41.926Z,8.77
2019-05-22T23:16:11.764Z,8.20
2019-05-22T23:18:46.982Z,8.13
2019-05-22T23:21:16.117Z,8.20
2019-05-22T23:23:44.378Z,7.67
2019-05-22T23:26:13.228Z,7.67
2019-05-22T23:28:43.892Z,9.30
2019-05-22T23:31:12.960Z,7.63
2019-05-22T23:33:43.047Z,7.63
2019-05-22T23:36:13.560Z,7.00
2019-05-22T23:38:42.264Z,6.80
2019-05-22T23:41:13.022Z,7.37
2019-05-22T23:43:44.766Z,6.93
2019-05-22T23:46:14.842Z,7.27
2019-05-22T23:48:43.938Z,8.23
2019-05-22T23:51:12.980Z,6.87
2019-05-22T23:53:42.751Z,7.20
2019-05-22T23:56:11.780Z,6.93
2019-05-22T23:58:52.268Z,6.90
